createdAt,value
2018-09-20T00:02:17.878Z,22.68
2018-09-20T00:07:21.020Z,22.61
2018-09-20T00:12:24.118Z,22.53
2018-09-20T00:17:27.175Z,22.47
2018-09-20T00:22:30.239Z,22.41
2018-09-20T00:27:33.314Z,22.33
2018-09-20T00:32:36.394Z,22.27
2018-09-20T00:37:39.450Z,22.21
2018-09-20T00:42:42.497Z,22.16
2018-09-20T00:47:45.535Z,22.15
2018-09-20T00:52:48.579Z,22.15
2018-09-20T00:57:51.666Z,22.22
2018-09-20T01:02:54.710Z,22.20
2018-09-20T01:07:57.783Z,22.22
2018-09-20T01:13:00.822Z,22.13
2018-09-20T01:18:03.891Z,22.05
2018-09-20T01:23:07.396Z,21.97
2018-09-20T01:28:10.490Z,21.88
2018-09-20T01:33:13.538Z,21.83
2018-09-20T01:38:16.635Z,21.78
2018-09-20T01:43:19.678Z,21.74
2018-09-20T01:48:22.691Z,21.66
2018-09-20T01:53:25.730Z,21.62
2018-09-20T01:58:28.782Z,21.58
2018-09-20T02:03:31.820Z,21.55
2018-09-20T02:08:34.929Z,21.53
2018-09-20T02:13:37.982Z,21.45
2018-09-20T02:18:40.986Z,21.34
2018-09-20T02:23:44.010Z,21.29
2018-09-20T02:28:47.026Z,21.21
2018-09-20T02:33:50.058Z,21.09
2018-09-20T02:38:53.126Z,21.03
2018-09-20T02:43:56.159Z,20.96
2018-09-20T02:48:59.187Z,20.95
2018-09-20T02:54:02.252Z,20.91
2018-09-20T02:59:05.364Z,20.87
2018-09-20T03:04:08.506Z,20.85
2018-09-20T03:09:11.968Z,20.83
2018-09-20T03:14:15.339Z,20.87
2018-09-20T03:19:18.402Z,20.89
2018-09-20T03:24:21.515Z,20.81
2018-09-20T03:29:24.547Z,20.81
2018-09-20T03:34:27.578Z,20.83
2018-09-20T03:39:30.591Z,20.89
2018-09-20T03:44:33.656Z,21.01
2018-09-20T03:49:36.686Z,21.04
2018-09-20T03:54:39.734Z,21.03
2018-09-20T03:59:42.832Z,21.00
2018-09-20T04:04:45.870Z,20.94
2018-09-20T04:09:48.979Z,20.94
2018-09-20T04:14:51.949Z,20.94
2018-09-20T04:19:55.011Z,20.90
2018-09-20T04:24:58.026Z,20.88
2018-09-20T04:30:01.090Z,20.84
2018-09-20T04:35:04.199Z,20.82
2018-09-20T04:40:07.229Z,20.81
2018-09-20T04:45:10.271Z,20.80
2018-09-20T04:50:13.320Z,20.82
2018-09-20T04:55:16.359Z,20.85
2018-09-20T05:00:19.415Z,20.79
2018-09-20T05:05:22.460Z,20.76
2018-09-20T05:10:25.496Z,20.75
2018-09-20T05:15:28.600Z,20.78
2018-09-20T05:20:31.822Z,20.83
2018-09-20T05:25:35.136Z,20.86
2018-09-20T05:30:38.300Z,20.88
2018-09-20T05:35:41.368Z,20.89
2018-09-20T05:40:44.396Z,20.95
2018-09-20T05:45:47.440Z,21.01
2018-09-20T05:50:50.586Z,21.10
2018-09-20T05:55:53.652Z,21.13
2018-09-20T06:00:57.563Z,21.10
2018-09-20T06:06:01.145Z,21.08
2018-09-20T06:11:05.161Z,21.15
2018-09-20T06:16:09.105Z,21.31
2018-09-20T06:21:12.799Z,21.50
2018-09-20T06:26:17.144Z,21.72
2018-09-20T06:31:21.376Z,21.90
2018-09-20T06:36:25.739Z,22.01
2018-09-20T06:41:29.151Z,22.15
2018-09-20T06:46:32.863Z,22.28
2018-09-20T06:51:36.783Z,22.48
2018-09-20T06:56:40.729Z,22.75
2018-09-20T07:01:44.293Z,22.92
2018-09-20T07:06:48.259Z,23.14
2018-09-20T07:11:52.118Z,23.45
2018-09-20T07:16:56.352Z,23.77
2018-09-20T07:21:59.534Z,24.01
2018-09-20T07:27:03.664Z,24.25
2018-09-20T07:32:07.574Z,24.53
2018-09-20T07:37:11.602Z,24.68
2018-09-20T07:42:15.635Z,24.86
2018-09-20T07:47:19.407Z,24.88
2018-09-20T07:52:23.838Z,24.75
2018-09-20T07:57:29.460Z,24.66
2018-09-20T08:02:32.507Z,24.69
2018-09-20T08:07:36.571Z,24.68
2018-09-20T08:12:39.639Z,24.83
2018-09-20T08:17:42.748Z,24.89
2018-09-20T08:22:46.327Z,25.05
2018-09-20T08:27:50.467Z,25.46
2018-09-20T08:32:57.675Z,25.78
2018-09-20T08:38:01.814Z,26.04
2018-09-20T08:43:05.843Z,26.16
2018-09-20T08:48:09.755Z,26.67
2018-09-20T08:53:13.943Z,26.71
2018-09-20T08:58:18.310Z,26.89
2018-09-20T09:03:21.413Z,27.01
2018-09-20T09:08:25.400Z,26.68
2018-09-20T09:13:29.118Z,26.65
2018-09-20T09:18:32.783Z,26.60
2018-09-20T09:23:35.811Z,26.75
2018-09-20T09:28:38.997Z,26.86
2018-09-20T09:33:42.358Z,26.91
2018-09-20T09:38:45.411Z,27.08
2018-09-20T09:43:48.483Z,27.28
2018-09-20T09:48:51.528Z,27.57
2018-09-20T09:53:54.590Z,27.76
2018-09-20T09:58:57.615Z,27.57
2018-09-20T10:04:00.690Z,27.77
2018-09-20T10:09:06.759Z,27.83
2018-09-20T10:14:09.802Z,28.04
2018-09-20T10:19:12.844Z,28.45
2018-09-20T10:24:15.903Z,28.80
2018-09-20T10:29:18.962Z,29.24
2018-09-20T10:34:22.002Z,29.27
2018-09-20T10:39:25.052Z,29.04
2018-09-20T10:44:28.109Z,29.17
2018-09-20T10:49:31.201Z,29.55
2018-09-20T10:54:34.324Z,29.59
2018-09-20T10:59:37.789Z,29.65
2018-09-20T11:04:40.818Z,29.47
2018-09-20T11:09:43.883Z,29.61
2018-09-20T11:14:46.946Z,29.87
2018-09-20T11:19:50.104Z,29.97
2018-09-20T11:24:53.165Z,30.01
2018-09-20T11:29:56.230Z,30.05
2018-09-20T11:34:59.288Z,29.95
2018-09-20T11:40:02.446Z,29.87
2018-09-20T11:45:05.631Z,29.59
2018-09-20T11:50:08.659Z,29.47
2018-09-20T11:55:11.719Z,29.58
2018-09-20T12:00:18.887Z,29.81
2018-09-20T12:05:22.407Z,29.68
2018-09-20T12:10:25.492Z,29.79
2018-09-20T12:15:28.552Z,29.81
2018-09-20T12:20:31.610Z,29.98
2018-09-20T12:25:34.655Z,30.02
2018-09-20T12:30:37.707Z,30.07
2018-09-20T12:35:40.851Z,30.06
2018-09-20T12:40:43.854Z,30.12
2018-09-20T12:45:46.904Z,30.26
2018-09-20T12:50:49.981Z,30.09
2018-09-20T12:55:53.090Z,30.00
2018-09-20T13:00:56.173Z,30.05
2018-09-20T13:05:59.259Z,30.09
2018-09-20T13:11:02.376Z,30.03
2018-09-20T13:16:05.463Z,30.05
2018-09-20T13:21:08.595Z,30.12
2018-09-20T13:26:11.639Z,30.18
2018-09-20T13:31:14.703Z,30.16
2018-09-20T13:36:17.795Z,30.20
2018-09-20T13:41:21.810Z,30.02
2018-09-20T13:46:25.310Z,30.03
2018-09-20T13:51:28.500Z,29.96
2018-09-20T13:56:31.659Z,29.99
2018-09-20T14:01:34.754Z,29.88
2018-09-20T14:06:37.872Z,29.71
2018-09-20T14:11:41.050Z,29.94
2018-09-20T14:16:44.222Z,30.22
2018-09-20T14:21:47.283Z,30.06
2018-09-20T14:26:50.356Z,29.91
2018-09-20T14:31:53.527Z,29.62
2018-09-20T14:36:56.660Z,29.73
2018-09-20T14:41:59.920Z,29.71
2018-09-20T14:47:03.103Z,29.93
2018-09-20T14:52:06.378Z,30.06
2018-09-20T14:57:09.792Z,30.10
2018-09-20T15:02:12.847Z,29.99
2018-09-20T15:07:15.947Z,29.92
2018-09-20T15:12:19.020Z,29.98
2018-09-20T15:17:22.056Z,30.00
2018-09-20T15:22:25.155Z,30.05
2018-09-20T15:27:28.211Z,30.18
2018-09-20T15:32:31.363Z,30.02
2018-09-20T15:37:34.311Z,29.97
2018-09-20T15:42:37.367Z,29.82
2018-09-20T15:47:40.512Z,29.72
2018-09-20T15:52:43.595Z,29.68
2018-09-20T15:57:46.678Z,29.81
2018-09-20T16:02:49.707Z,29.73
2018-09-20T16:07:52.887Z,29.62
2018-09-20T16:12:55.955Z,29.59
2018-09-20T16:17:59.012Z,29.53
2018-09-20T16:23:02.210Z,29.36
2018-09-20T16:28:15.162Z,29.33
2018-09-20T16:35:39.191Z,29.21
2018-09-20T16:40:44.595Z,28.79
2018-09-20T16:45:47.625Z,28.72
2018-09-20T16:50:50.671Z,28.51
2018-09-20T16:55:53.811Z,28.32
2018-09-20T17:00:56.871Z,28.19
2018-09-20T17:06:00.012Z,28.01
2018-09-20T17:11:03.162Z,27.85
2018-09-20T17:16:06.779Z,27.66
2018-09-20T17:21:09.880Z,27.48
2018-09-20T17:26:12.943Z,27.29
2018-09-20T17:31:15.990Z,27.13
2018-09-20T17:36:19.322Z,26.99
2018-09-20T17:41:25.382Z,26.88
2018-09-20T17:46:28.411Z,26.78
2018-09-20T17:51:31.884Z,26.70
2018-09-20T17:56:35.432Z,26.50
2018-09-20T18:01:38.523Z,26.26
2018-09-20T18:06:41.632Z,26.03
2018-09-20T18:11:46.706Z,25.88
2018-09-20T18:16:49.771Z,25.67
2018-09-20T18:21:53.519Z,25.48
2018-09-20T18:26:56.585Z,25.21
2018-09-20T18:31:59.594Z,25.17
2018-09-20T18:37:02.642Z,25.22
2018-09-20T18:42:05.806Z,25.09
2018-09-20T18:47:08.824Z,24.95
2018-09-20T18:52:37.587Z,24.87
2018-09-20T18:57:40.626Z,24.77
2018-09-20T19:02:45.222Z,24.79
2018-09-20T19:07:48.327Z,24.75
2018-09-20T19:12:52.224Z,24.69
2018-09-20T19:17:55.763Z,24.62
2018-09-20T19:22:58.882Z,24.54
2018-09-20T19:28:02.047Z,24.39
2018-09-20T19:33:05.107Z,24.24
2018-09-20T19:38:08.200Z,24.16
2018-09-20T19:43:11.983Z,24.09
2018-09-20T19:48:14.983Z,24.00
2018-09-20T19:53:18.003Z,23.94
2018-09-20T19:58:21.022Z,23.85
2018-09-20T20:03:24.119Z,23.76
2018-09-20T20:08:27.182Z,23.64
2018-09-20T20:13:30.238Z,23.53
2018-09-20T20:18:33.290Z,23.46
2018-09-20T20:23:36.364Z,23.47
2018-09-20T20:28:39.425Z,23.35
2018-09-20T20:33:42.458Z,23.27
2018-09-20T20:38:45.463Z,23.29
2018-09-20T20:43:48.478Z,23.31
2018-09-20T20:48:51.546Z,23.28
2018-09-20T20:53:54.597Z,23.30
2018-09-20T20:58:57.641Z,23.37
2018-09-20T21:04:00.707Z,23.38
2018-09-20T21:09:05.489Z,23.35
2018-09-20T21:14:08.548Z,23.33
2018-09-20T21:19:11.566Z,23.48
2018-09-20T21:24:14.575Z,23.63
2018-09-20T21:29:17.667Z,23.70
2018-09-20T21:34:20.675Z,23.73
2018-09-20T21:39:23.686Z,23.72
2018-09-20T21:44:26.702Z,23.73
2018-09-20T21:49:29.994Z,23.66
2018-09-20T21:54:33.011Z,23.62
2018-09-20T21:59:36.062Z,23.63
2018-09-20T22:04:39.327Z,23.66
2018-09-20T22:09:42.410Z,23.65
2018-09-20T22:14:45.438Z,23.69
2018-09-20T22:19:48.603Z,23.68
2018-09-20T22:24:51.658Z,23.76
2018-09-20T22:29:54.774Z,23.80
2018-09-20T22:34:57.855Z,23.90
2018-09-20T22:40:00.958Z,23.96
2018-09-20T22:45:04.334Z,24.03
2018-09-20T22:50:07.426Z,24.09
2018-09-20T22:55:10.483Z,24.13
2018-09-20T23:00:15.433Z,24.16
2018-09-20T23:05:18.511Z,24.10
2018-09-20T23:10:21.588Z,24.01
2018-09-20T23:15:24.643Z,23.90
2018-09-20T23:20:27.718Z,23.77
2018-09-20T23:25:30.743Z,23.72
2018-09-20T23:30:33.807Z,23.68
2018-09-20T23:35:36.839Z,23.67
2018-09-20T23:40:39.923Z,23.65
2018-09-20T23:45:42.966Z,23.52
2018-09-20T23:50:46.025Z,23.49
2018-09-20T23:55:49.123Z,23.44
